sensor_id;sensor_type;location;lat;lon;timestamp;pressure;altitude;pressure_sealevel;temperature;humidity
75247;BME280;63844;50.042;19.224;2023-01-15T00:01:04;98550.33;;;4.15;66.87
75247;BME280;63844;50.042;19.224;2023-01-15T00:03:47;98542.79;;;4.19;67.32
75247;BME280;63844;50.042;19.224;2023-01-15T00:06:17;98533.02;;;4.22;68.35
75247;BME280;63844;50.042;19.224;2023-01-15T00:08:45;98532.07;;;4.31;67.40
75247;BME280;63844;50.042;19.224;2023-01-15T00:11:11;98524.34;;;4.32;66.96
75247;BME280;63844;50.042;19.224;2023-01-15T00:13:39;98518.23;;;4.31;67.65
75247;BME280;63844;50.042;19.224;2023-01-15T00:16:09;98504.83;;;4.29;67.67
75247;BME280;63844;50.042;19.224;2023-01-15T00:18:36;98500.98;;;4.33;65.77
75247;BME280;63844;50.042;19.224;2023-01-15T00:21:05;98508.36;;;4.36;67.86
75247;BME280;63844;50.042;19.224;2023-01-15T00:23:32;98503.86;;;4.35;66.98
75247;BME280;63844;50.042;19.224;2023-01-15T00:26:19;98497.50;;;4.43;65.90
75247;BME280;63844;50.042;19.224;2023-01-15T00:29:05;98489.01;;;4.45;65.87
75247;BME280;63844;50.042;19.224;2023-01-15T00:31:34;98487.93;;;4.49;66.27
75247;BME280;63844;50.042;19.224;2023-01-15T00:34:01;98485.01;;;4.51;65.80
75247;BME280;63844;50.042;19.224;2023-01-15T00:36:28;98482.53;;;4.59;66.13
75247;BME280;63844;50.042;19.224;2023-01-15T00:38:54;98475.80;;;4.67;65.48
75247;BME280;63844;50.042;19.224;2023-01-15T00:41:21;98465.10;;;4.78;64.09
75247;BME280;63844;50.042;19.224;2023-01-15T00:43:48;98462.90;;;4.97;63.23
75247;BME280;63844;50.042;19.224;2023-01-15T00:46:15;98453.64;;;5.13;62.33
75247;BME280;63844;50.042;19.224;2023-01-15T00:48:41;98452.95;;;5.26;61.97
75247;BME280;63844;50.042;19.224;2023-01-15T00:51:08;98456.76;;;5.33;61.76
75247;BME280;63844;50.042;19.224;2023-01-15T00:53:34;98452.64;;;5.38;62.89
75247;BME280;63844;50.042;19.224;2023-01-15T00:56:01;98453.00;;;5.41;62.67
75247;BME280;63844;50.042;19.224;2023-01-15T00:58:27;98457.78;;;5.44;62.21
75247;BME280;63844;50.042;19.224;2023-01-15T01:00:55;98450.13;;;5.46;61.42
75247;BME280;63844;50.042;19.224;2023-01-15T01:03:23;98446.97;;;5.49;62.06
75247;BME280;63844;50.042;19.224;2023-01-15T01:05:49;98445.60;;;5.55;61.65
75247;BME280;63844;50.042;19.224;2023-01-15T01:08:16;98436.41;;;5.59;61.33
75247;BME280;63844;50.042;19.224;2023-01-15T01:10:43;98429.66;;;5.64;61.50
75247;BME280;63844;50.042;19.224;2023-01-15T01:13:09;98427.98;;;5.69;60.13
75247;BME280;63844;50.042;19.224;2023-01-15T01:15:37;98430.34;;;5.74;60.08
75247;BME280;63844;50.042;19.224;2023-01-15T01:18:05;98420.20;;;5.79;60.37
75247;BME280;63844;50.042;19.224;2023-01-15T01:20:32;98416.29;;;5.80;59.89
75247;BME280;63844;50.042;19.224;2023-01-15T01:22:59;98413.68;;;5.79;59.22
75247;BME280;63844;50.042;19.224;2023-01-15T01:25:25;98412.96;;;5.83;60.15
75247;BME280;63844;50.042;19.224;2023-01-15T01:27:52;98410.39;;;5.85;60.04
75247;BME280;63844;50.042;19.224;2023-01-15T01:30:18;98413.83;;;5.87;59.73
75247;BME280;63844;50.042;19.224;2023-01-15T01:32:45;98407.73;;;6.01;57.56
75247;BME280;63844;50.042;19.224;2023-01-15T01:35:12;98410.72;;;6.20;58.31
75247;BME280;63844;50.042;19.224;2023-01-15T01:37:38;98401.28;;;6.43;56.38
75247;BME280;63844;50.042;19.224;2023-01-15T01:40:05;98400.87;;;6.53;56.21
75247;BME280;63844;50.042;19.224;2023-01-15T01:42:32;98398.50;;;6.64;56.17
75247;BME280;63844;50.042;19.224;2023-01-15T01:45:02;98393.52;;;6.68;56.76
75247;BME280;63844;50.042;19.224;2023-01-15T01:47:30;98385.86;;;6.72;55.78
75247;BME280;63844;50.042;19.224;2023-01-15T01:50:04;98385.85;;;6.69;56.68
75247;BME280;63844;50.042;19.224;2023-01-15T01:52:40;98372.22;;;6.68;56.65
75247;BME280;63844;50.042;19.224;2023-01-15T01:55:09;98367.44;;;6.71;55.88
75247;BME280;63844;50.042;19.224;2023-01-15T01:57:38;98366.98;;;6.79;55.11
75247;BME280;63844;50.042;19.224;2023-01-15T02:00:06;98365.56;;;6.79;56.32
75247;BME280;63844;50.042;19.224;2023-01-15T02:02:37;98363.30;;;6.76;56.37
75247;BME280;63844;50.042;19.224;2023-01-15T02:05:04;98361.61;;;6.75;56.13
75247;BME280;63844;50.042;19.224;2023-01-15T02:07:33;98352.24;;;6.75;55.83
75247;BME280;63844;50.042;19.224;2023-01-15T02:10:00;98355.04;;;6.79;55.37
75247;BME280;63844;50.042;19.224;2023-01-15T02:12:38;98357.14;;;6.76;55.07
75247;BME280;63844;50.042;19.224;2023-01-15T02:15:13;98367.81;;;6.71;56.32
75247;BME280;63844;50.042;19.224;2023-01-15T02:18:00;98361.24;;;6.72;56.29
75247;BME280;63844;50.042;19.224;2023-01-15T02:20:51;98349.50;;;6.71;56.51
75247;BME280;63844;50.042;19.224;2023-01-15T02:28:25;98346.23;;;6.70;56.28
75247;BME280;63844;50.042;19.224;2023-01-15T02:31:16;98342.07;;;6.69;55.87
75247;BME280;63844;50.042;19.224;2023-01-15T02:34:04;98336.00;;;6.68;56.76
75247;BME280;63844;50.042;19.224;2023-01-15T02:36:34;98326.98;;;6.66;56.48
75247;BME280;63844;50.042;19.224;2023-01-15T02:39:06;98323.98;;;6.63;57.00
75247;BME280;63844;50.042;19.224;2023-01-15T02:41:39;98328.56;;;6.60;56.59
75247;BME280;63844;50.042;19.224;2023-01-15T02:44:09;98325.11;;;6.62;56.32
75247;BME280;63844;50.042;19.224;2023-01-15T02:46:37;98318.38;;;6.68;56.40
75247;BME280;63844;50.042;19.224;2023-01-15T02:49:07;98317.86;;;6.74;56.22
75247;BME280;63844;50.042;19.224;2023-01-15T02:51:39;98313.89;;;6.79;56.20
75247;BME280;63844;50.042;19.224;2023-01-15T02:54:12;98304.48;;;6.77;56.27
75247;BME280;63844;50.042;19.224;2023-01-15T02:56:42;98305.67;;;6.78;56.48
75247;BME280;63844;50.042;19.224;2023-01-15T02:59:15;98311.95;;;6.79;55.90
75247;BME280;63844;50.042;19.224;2023-01-15T03:01:56;98316.16;;;6.79;56.68
75247;BME280;63844;50.042;19.224;2023-01-15T03:04:31;98315.98;;;6.79;56.28
75247;BME280;63844;50.042;19.224;2023-01-15T03:07:14;98305.80;;;6.78;56.82
75247;BME280;63844;50.042;19.224;2023-01-15T03:09:43;98299.04;;;6.80;56.63
75247;BME280;63844;50.042;19.224;2023-01-15T03:12:19;98299.38;;;6.80;56.75
75247;BME280;63844;50.042;19.224;2023-01-15T03:14:55;98295.48;;;6.83;56.39
75247;BME280;63844;50.042;19.224;2023-01-15T03:17:35;98294.58;;;6.89;56.25
75247;BME280;63844;50.042;19.224;2023-01-15T03:20:08;98297.26;;;6.94;56.29
75247;BME280;63844;50.042;19.224;2023-01-15T03:22:40;98294.42;;;6.97;56.39
75247;BME280;63844;50.042;19.224;2023-01-15T03:25:13;98291.27;;;6.97;56.57
75247;BME280;63844;50.042;19.224;2023-01-15T03:27:41;98294.33;;;6.99;56.44
75247;BME280;63844;50.042;19.224;2023-01-15T03:30:16;98289.06;;;7.02;56.82
75247;BME280;63844;50.042;19.224;2023-01-15T03:32:43;98287.23;;;7.00;56.64
75247;BME280;63844;50.042;19.224;2023-01-15T03:35:38;98281.88;;;7.04;56.58
75247;BME280;63844;50.042;19.224;2023-01-15T03:38:08;98280.10;;;7.04;56.91
75247;BME280;63844;50.042;19.224;2023-01-15T03:40:36;98272.31;;;7.08;56.93
75247;BME280;63844;50.042;19.224;2023-01-15T03:43:09;98268.27;;;7.13;56.92
75247;BME280;63844;50.042;19.224;2023-01-15T03:46:02;98269.67;;;7.13;56.96
75247;BME280;63844;50.042;19.224;2023-01-15T03:48:39;98267.00;;;7.17;57.23
75247;BME280;63844;50.042;19.224;2023-01-15T03:51:38;98265.23;;;7.17;57.24
75247;BME280;63844;50.042;19.224;2023-01-15T03:54:20;98259.69;;;7.13;57.72
75247;BME280;63844;50.042;19.224;2023-01-15T03:56:53;98253.99;;;7.14;58.11
75247;BME280;63844;50.042;19.224;2023-01-15T03:59:32;98249.41;;;7.14;57.78
75247;BME280;63844;50.042;19.224;2023-01-15T04:02:02;98249.96;;;7.19;58.25
75247;BME280;63844;50.042;19.224;2023-01-15T04:04:32;98250.56;;;7.21;58.05
75247;BME280;63844;50.042;19.224;2023-01-15T04:07:00;98243.54;;;7.23;58.05
75247;BME280;63844;50.042;19.224;2023-01-15T04:09:27;98245.65;;;7.26;57.91
75247;BME280;63844;50.042;19.224;2023-01-15T04:11:58;98244.92;;;7.26;58.14
75247;BME280;63844;50.042;19.224;2023-01-15T04:14:26;98244.67;;;7.27;58.19
75247;BME280;63844;50.042;19.224;2023-01-15T04:16:55;98238.60;;;7.31;57.84
75247;BME280;63844;50.042;19.224;2023-01-15T04:19:21;98227.83;;;7.34;58.27
75247;BME280;63844;50.042;19.224;2023-01-15T04:21:48;98226.59;;;7.32;58.05
75247;BME280;63844;50.042;19.224;2023-01-15T04:24:14;98218.04;;;7.31;57.93
75247;BME280;63844;50.042;19.224;2023-01-15T04:26:41;98211.95;;;7.32;57.91
75247;BME280;63844;50.042;19.224;2023-01-15T04:29:07;98212.92;;;7.34;57.98
75247;BME280;63844;50.042;19.224;2023-01-15T04:31:34;98209.46;;;7.38;57.62
75247;BME280;63844;50.042;19.224;2023-01-15T04:34:02;98204.80;;;7.36;57.99
75247;BME280;63844;50.042;19.224;2023-01-15T04:36:29;98206.27;;;7.36;58.15
75247;BME280;63844;50.042;19.224;2023-01-15T04:38:56;98203.25;;;7.36;57.62
75247;BME280;63844;50.042;19.224;2023-01-15T04:41:25;98200.68;;;7.40;57.86
75247;BME280;63844;50.042;19.224;2023-01-15T04:44:10;98190.95;;;7.38;57.75
75247;BME280;63844;50.042;19.224;2023-01-15T04:46:39;98190.27;;;7.40;57.71
75247;BME280;63844;50.042;19.224;2023-01-15T04:49:09;98186.51;;;7.45;57.23
75247;BME280;63844;50.042;19.224;2023-01-15T04:51:36;98183.11;;;7.46;57.41
75247;BME280;63844;50.042;19.224;2023-01-15T04:54:08;98178.41;;;7.45;57.55
75247;BME280;63844;50.042;19.224;2023-01-15T04:56:40;98171.85;;;7.46;57.72
75247;BME280;63844;50.042;19.224;2023-01-15T04:59:08;98171.08;;;7.49;57.27
75247;BME280;63844;50.042;19.224;2023-01-15T05:01:35;98170.11;;;7.50;57.04
75247;BME280;63844;50.042;19.224;2023-01-15T05:04:02;98172.12;;;7.49;57.20
75247;BME280;63844;50.042;19.224;2023-01-15T05:06:29;98167.34;;;7.47;57.13
75247;BME280;63844;50.042;19.224;2023-01-15T05:09:00;98167.85;;;7.47;57.33
75247;BME280;63844;50.042;19.224;2023-01-15T05:11:27;98160.77;;;7.48;57.61
75247;BME280;63844;50.042;19.224;2023-01-15T05:13:54;98161.83;;;7.48;57.45
75247;BME280;63844;50.042;19.224;2023-01-15T05:16:24;98164.84;;;7.45;57.45
75247;BME280;63844;50.042;19.224;2023-01-15T05:18:53;98157.48;;;7.44;57.96
75247;BME280;63844;50.042;19.224;2023-01-15T05:21:25;98156.86;;;7.40;58.24
75247;BME280;63844;50.042;19.224;2023-01-15T05:23:54;98155.94;;;7.38;57.76
75247;BME280;63844;50.042;19.224;2023-01-15T05:26:22;98155.38;;;7.38;57.87
75247;BME280;63844;50.042;19.224;2023-01-15T05:28:52;98157.55;;;7.40;57.65
75247;BME280;63844;50.042;19.224;2023-01-15T05:31:19;98153.70;;;7.40;58.16
75247;BME280;63844;50.042;19.224;2023-01-15T05:33:47;98145.66;;;7.42;58.03
75247;BME280;63844;50.042;19.224;2023-01-15T05:36:16;98140.23;;;7.38;57.96
75247;BME280;63844;50.042;19.224;2023-01-15T05:38:43;98139.16;;;7.39;57.51
75247;BME280;63844;50.042;19.224;2023-01-15T05:41:12;98138.86;;;7.38;57.71
75247;BME280;63844;50.042;19.224;2023-01-15T05:44:03;98133.40;;;7.35;57.16
75247;BME280;63844;50.042;19.224;2023-01-15T05:46:32;98126.09;;;7.37;57.17
75247;BME280;63844;50.042;19.224;2023-01-15T05:49:04;98127.25;;;7.40;56.83
75247;BME280;63844;50.042;19.224;2023-01-15T05:51:34;98127.54;;;7.41;56.78
75247;BME280;63844;50.042;19.224;2023-01-15T05:54:03;98123.63;;;7.42;56.66
75247;BME280;63844;50.042;19.224;2023-01-15T05:56:29;98119.86;;;7.41;57.14
75247;BME280;63844;50.042;19.224;2023-01-15T05:58:56;98117.80;;;7.34;56.91
75247;BME280;63844;50.042;19.224;2023-01-15T06:01:23;98114.31;;;7.34;57.07
75247;BME280;63844;50.042;19.224;2023-01-15T06:03:49;98115.25;;;7.36;57.05
75247;BME280;63844;50.042;19.224;2023-01-15T06:06:16;98119.48;;;7.35;57.07
75247;BME280;63844;50.042;19.224;2023-01-15T06:08:44;98119.23;;;7.34;56.81
75247;BME280;63844;50.042;19.224;2023-01-15T06:11:11;98118.20;;;7.34;57.05
75247;BME280;63844;50.042;19.224;2023-01-15T06:13:38;98116.96;;;7.34;56.90
75247;BME280;63844;50.042;19.224;2023-01-15T06:16:07;98112.90;;;7.37;56.37
75247;BME280;63844;50.042;19.224;2023-01-15T06:18:37;98105.02;;;7.41;56.12
75247;BME280;63844;50.042;19.224;2023-01-15T06:21:08;98108.81;;;7.40;56.24
75247;BME280;63844;50.042;19.224;2023-01-15T06:23:35;98109.33;;;7.43;56.20
75247;BME280;63844;50.042;19.224;2023-01-15T06:26:07;98107.60;;;7.42;55.77
75247;BME280;63844;50.042;19.224;2023-01-15T06:28:34;98107.75;;;7.42;56.34
75247;BME280;63844;50.042;19.224;2023-01-15T06:31:04;98110.19;;;7.40;56.03
75247;BME280;63844;50.042;19.224;2023-01-15T06:33:31;98104.75;;;7.40;56.20
75247;BME280;63844;50.042;19.224;2023-01-15T06:35:57;98107.94;;;7.37;56.60
75247;BME280;63844;50.042;19.224;2023-01-15T06:38:27;98103.42;;;7.36;56.58
75247;BME280;63844;50.042;19.224;2023-01-15T06:40:53;98109.75;;;7.36;55.91
75247;BME280;63844;50.042;19.224;2023-01-15T06:43:20;98112.70;;;7.39;56.04
75247;BME280;63844;50.042;19.224;2023-01-15T06:46:07;98113.86;;;7.38;56.39
75247;BME280;63844;50.042;19.224;2023-01-15T06:48:53;98112.63;;;7.36;56.48
75247;BME280;63844;50.042;19.224;2023-01-15T06:51:19;98110.42;;;7.34;55.78
75247;BME280;63844;50.042;19.224;2023-01-15T06:53:47;98107.23;;;7.34;56.53
75247;BME280;63844;50.042;19.224;2023-01-15T06:56:13;98101.98;;;7.31;57.08
75247;BME280;63844;50.042;19.224;2023-01-15T06:58:43;98100.58;;;7.29;56.40
75247;BME280;63844;50.042;19.224;2023-01-15T07:01:13;98098.59;;;7.25;56.44
75247;BME280;63844;50.042;19.224;2023-01-15T07:03:40;98102.30;;;7.22;57.56
75247;BME280;63844;50.042;19.224;2023-01-15T07:06:08;98107.46;;;7.18;57.16
75247;BME280;63844;50.042;19.224;2023-01-15T07:08:36;98109.16;;;7.14;57.42
75247;BME280;63844;50.042;19.224;2023-01-15T07:11:04;98110.09;;;7.10;57.76
75247;BME280;63844;50.042;19.224;2023-01-15T07:13:32;98106.52;;;7.09;58.09
75247;BME280;63844;50.042;19.224;2023-01-15T07:16:00;98111.16;;;7.02;58.29
75247;BME280;63844;50.042;19.224;2023-01-15T07:18:29;98109.88;;;7.01;57.69
75247;BME280;63844;50.042;19.224;2023-01-15T07:20:57;98116.04;;;7.00;58.32
75247;BME280;63844;50.042;19.224;2023-01-15T07:23:25;98121.20;;;7.00;58.27
75247;BME280;63844;50.042;19.224;2023-01-15T07:25:52;98120.94;;;7.01;56.63
75247;BME280;63844;50.042;19.224;2023-01-15T07:28:20;98124.05;;;7.04;56.64
75247;BME280;63844;50.042;19.224;2023-01-15T07:30:47;98125.41;;;7.10;57.05
75247;BME280;63844;50.042;19.224;2023-01-15T07:33:14;98124.53;;;7.15;56.91
75247;BME280;63844;50.042;19.224;2023-01-15T07:35:40;98120.77;;;7.19;56.91
75247;BME280;63844;50.042;19.224;2023-01-15T07:38:07;98123.77;;;7.24;56.95
75247;BME280;63844;50.042;19.224;2023-01-15T07:40:34;98129.16;;;7.28;56.85
75247;BME280;63844;50.042;19.224;2023-01-15T07:43:00;98131.61;;;7.33;56.38
75247;BME280;63844;50.042;19.224;2023-01-15T07:45:46;98133.27;;;7.37;56.37
75247;BME280;63844;50.042;19.224;2023-01-15T07:48:31;98132.35;;;7.41;56.17
75247;BME280;63844;50.042;19.224;2023-01-15T07:51:16;98130.77;;;7.43;55.40
75247;BME280;63844;50.042;19.224;2023-01-15T07:53:43;98131.36;;;7.45;55.29
75247;BME280;63844;50.042;19.224;2023-01-15T07:56:09;98127.57;;;7.52;55.15
75247;BME280;63844;50.042;19.224;2023-01-15T07:58:36;98124.13;;;7.51;55.41
75247;BME280;63844;50.042;19.224;2023-01-15T08:01:03;98118.77;;;7.52;54.97
75247;BME280;63844;50.042;19.224;2023-01-15T08:03:29;98114.51;;;7.50;55.31
75247;BME280;63844;50.042;19.224;2023-01-15T08:05:56;98115.17;;;7.50;55.50
75247;BME280;63844;50.042;19.224;2023-01-15T08:08:22;98112.43;;;7.47;55.31
75247;BME280;63844;50.042;19.224;2023-01-15T08:10:49;98107.08;;;7.45;55.73
75247;BME280;63844;50.042;19.224;2023-01-15T08:13:34;98102.35;;;7.41;55.58
75247;BME280;63844;50.042;19.224;2023-01-15T08:16:19;98101.33;;;7.41;55.44
75247;BME280;63844;50.042;19.224;2023-01-15T08:18:46;98103.99;;;7.43;55.74
75247;BME280;63844;50.042;19.224;2023-01-15T08:21:14;98100.73;;;7.45;55.66
75247;BME280;63844;50.042;19.224;2023-01-15T08:23:41;98098.41;;;7.46;55.27
75247;BME280;63844;50.042;19.224;2023-01-15T08:26:08;98095.64;;;7.47;54.97
75247;BME280;63844;50.042;19.224;2023-01-15T08:28:35;98094.23;;;7.52;55.07
75247;BME280;63844;50.042;19.224;2023-01-15T08:31:01;98101.01;;;7.49;55.17
75247;BME280;63844;50.042;19.224;2023-01-15T08:33:30;98095.95;;;7.51;55.50
75247;BME280;63844;50.042;19.224;2023-01-15T08:35:58;98098.09;;;7.48;55.57
75247;BME280;63844;50.042;19.224;2023-01-15T08:38:24;98097.04;;;7.50;55.05
75247;BME280;63844;50.042;19.224;2023-01-15T08:40:54;98097.89;;;7.51;55.43
75247;BME280;63844;50.042;19.224;2023-01-15T08:43:31;98093.52;;;7.50;55.01
75247;BME280;63844;50.042;19.224;2023-01-15T08:46:00;98099.30;;;7.51;54.85
75247;BME280;63844;50.042;19.224;2023-01-15T08:48:29;98089.52;;;7.55;55.18
75247;BME280;63844;50.042;19.224;2023-01-15T08:50:56;98087.98;;;7.57;54.81
75247;BME280;63844;50.042;19.224;2023-01-15T08:53:23;98087.29;;;7.56;55.64
75247;BME280;63844;50.042;19.224;2023-01-15T08:55:50;98087.87;;;7.56;55.02
75247;BME280;63844;50.042;19.224;2023-01-15T08:58:17;98090.10;;;7.57;54.29
75247;BME280;63844;50.042;19.224;2023-01-15T09:00:44;98092.60;;;7.58;54.78
75247;BME280;63844;50.042;19.224;2023-01-15T09:03:10;98093.86;;;7.61;54.84
75247;BME280;63844;50.042;19.224;2023-01-15T09:05:37;98100.41;;;7.63;54.93
75247;BME280;63844;50.042;19.224;2023-01-15T09:08:04;98100.86;;;7.63;54.43
75247;BME280;63844;50.042;19.224;2023-01-15T09:10:31;98099.89;;;7.62;54.63
75247;BME280;63844;50.042;19.224;2023-01-15T09:13:02;98095.02;;;7.67;54.47
75247;BME280;63844;50.042;19.224;2023-01-15T09:15:31;98092.36;;;7.70;54.84
75247;BME280;63844;50.042;19.224;2023-01-15T09:17:58;98087.64;;;7.72;54.66
75247;BME280;63844;50.042;19.224;2023-01-15T09:20:25;98081.69;;;7.74;54.01
75247;BME280;63844;50.042;19.224;2023-01-15T09:22:52;98079.86;;;7.77;53.79
75247;BME280;63844;50.042;19.224;2023-01-15T09:25:19;98080.20;;;7.80;53.59
75247;BME280;63844;50.042;19.224;2023-01-15T09:27:49;98085.86;;;7.84;53.61
75247;BME280;63844;50.042;19.224;2023-01-15T09:30:17;98081.55;;;7.88;52.80
75247;BME280;63844;50.042;19.224;2023-01-15T09:32:44;98073.63;;;7.94;53.84
75247;BME280;63844;50.042;19.224;2023-01-15T09:35:11;98063.48;;;7.97;53.87
75247;BME280;63844;50.042;19.224;2023-01-15T09:37:37;98060.54;;;7.99;52.78
75247;BME280;63844;50.042;19.224;2023-01-15T09:40:05;98051.06;;;8.03;52.99
75247;BME280;63844;50.042;19.224;2023-01-15T09:42:44;98055.45;;;8.04;51.73
75247;BME280;63844;50.042;19.224;2023-01-15T09:45:25;98044.55;;;8.11;52.71
75247;BME280;63844;50.042;19.224;2023-01-15T09:48:07;98046.63;;;8.14;51.83
75247;BME280;63844;50.042;19.224;2023-01-15T09:51:07;98054.66;;;8.17;52.06
75247;BME280;63844;50.042;19.224;2023-01-15T09:56:27;98056.15;;;8.26;51.35
75247;BME280;63844;50.042;19.224;2023-01-15T09:58:56;98054.36;;;8.31;50.99
75247;BME280;63844;50.042;19.224;2023-01-15T10:01:29;98055.33;;;8.33;51.58
75247;BME280;63844;50.042;19.224;2023-01-15T10:04:44;98046.52;;;8.35;50.83
75247;BME280;63844;50.042;19.224;2023-01-15T10:06:57;98037.42;;;8.42;51.44
75247;BME280;63844;50.042;19.224;2023-01-15T10:09:34;98033.19;;;8.44;51.15
75247;BME280;63844;50.042;19.224;2023-01-15T10:12:28;98029.77;;;8.45;49.64
75247;BME280;63844;50.042;19.224;2023-01-15T10:29:01;98008.98;;;8.62;48.27
75247;BME280;63844;50.042;19.224;2023-01-15T10:37:04;97998.23;;;8.57;50.33
75247;BME280;63844;50.042;19.224;2023-01-15T10:47:38;97986.58;;;8.27;52.43
75247;BME280;63844;50.042;19.224;2023-01-15T10:50:16;97976.96;;;8.26;52.77
75247;BME280;63844;50.042;19.224;2023-01-15T10:52:47;97975.51;;;8.20;52.68
75247;BME280;63844;50.042;19.224;2023-01-15T10:55:41;97974.88;;;8.19;52.35
75247;BME280;63844;50.042;19.224;2023-01-15T10:58:27;97971.91;;;8.21;52.43
75247;BME280;63844;50.042;19.224;2023-01-15T11:01:03;97972.16;;;8.22;52.30
75247;BME280;63844;50.042;19.224;2023-01-15T11:03:36;97967.29;;;8.19;51.83
75247;BME280;63844;50.042;19.224;2023-01-15T11:06:06;97969.05;;;8.21;51.80
75247;BME280;63844;50.042;19.224;2023-01-15T11:08:34;97966.13;;;8.18;52.02
75247;BME280;63844;50.042;19.224;2023-01-15T11:11:34;97967.10;;;8.19;52.36
75247;BME280;63844;50.042;19.224;2023-01-15T11:14:41;97957.30;;;8.18;52.91
75247;BME280;63844;50.042;19.224;2023-01-15T11:17:36;97958.39;;;8.13;53.57
75247;BME280;63844;50.042;19.224;2023-01-15T11:20:31;97949.33;;;8.16;54.10
75247;BME280;63844;50.042;19.224;2023-01-15T11:23:12;97941.72;;;8.12;53.85
75247;BME280;63844;50.042;19.224;2023-01-15T11:25:54;97943.73;;;8.11;54.22
75247;BME280;63844;50.042;19.224;2023-01-15T11:28:32;97934.17;;;8.09;54.30
75247;BME280;63844;50.042;19.224;2023-01-15T11:31:01;97931.44;;;8.05;54.95
75247;BME280;63844;50.042;19.224;2023-01-15T11:33:28;97925.17;;;8.07;54.60
75247;BME280;63844;50.042;19.224;2023-01-15T11:36:02;97917.80;;;8.09;55.41
75247;BME280;63844;50.042;19.224;2023-01-15T11:38:35;97914.58;;;8.10;56.08
75247;BME280;63844;50.042;19.224;2023-01-15T11:41:28;97906.29;;;8.09;56.02
75247;BME280;63844;50.042;19.224;2023-01-15T11:44:16;97900.31;;;8.12;56.92
75247;BME280;63844;50.042;19.224;2023-01-15T11:47:03;97894.19;;;8.11;56.15
75247;BME280;63844;50.042;19.224;2023-01-15T11:49:52;97893.74;;;8.17;56.69
75247;BME280;63844;50.042;19.224;2023-01-15T11:52:51;97891.34;;;8.19;56.76
75247;BME280;63844;50.042;19.224;2023-01-15T11:55:26;97889.67;;;8.20;56.99
75247;BME280;63844;50.042;19.224;2023-01-15T11:57:55;97882.21;;;8.21;57.50
75247;BME280;63844;50.042;19.224;2023-01-15T12:00:25;97879.10;;;8.20;57.15
75247;BME280;63844;50.042;19.224;2023-01-15T12:02:56;97877.99;;;8.23;57.52
75247;BME280;63844;50.042;19.224;2023-01-15T12:05:28;97876.48;;;8.22;58.00
75247;BME280;63844;50.042;19.224;2023-01-15T12:07:57;97874.14;;;8.20;58.88
75247;BME280;63844;50.042;19.224;2023-01-15T12:10:34;97871.96;;;8.23;58.23
75247;BME280;63844;50.042;19.224;2023-01-15T12:13:40;97873.09;;;8.18;59.99
75247;BME280;63844;50.042;19.224;2023-01-15T12:16:18;97867.27;;;8.14;60.95
75247;BME280;63844;50.042;19.224;2023-01-15T12:24:25;97853.05;;;8.13;62.23
75247;BME280;63844;50.042;19.224;2023-01-15T12:29:48;97843.42;;;8.07;64.91
75247;BME280;63844;50.042;19.224;2023-01-15T12:32:19;97844.19;;;8.01;66.08
75247;BME280;63844;50.042;19.224;2023-01-15T12:34:53;97842.91;;;8.02;66.83
75247;BME280;63844;50.042;19.224;2023-01-15T12:37:26;97842.52;;;8.00;67.65
75247;BME280;63844;50.042;19.224;2023-01-15T12:40:23;97833.78;;;8.01;65.35
75247;BME280;63844;50.042;19.224;2023-01-15T12:42:49;97832.73;;;8.01;67.14
75247;BME280;63844;50.042;19.224;2023-01-15T12:45:40;97831.95;;;8.05;64.61
75247;BME280;63844;50.042;19.224;2023-01-15T12:48:26;97826.11;;;8.07;63.88
75247;BME280;63844;50.042;19.224;2023-01-15T12:51:00;97825.23;;;8.07;63.42
75247;BME280;63844;50.042;19.224;2023-01-15T12:53:42;97826.25;;;8.10;63.44
75247;BME280;63844;50.042;19.224;2023-01-15T12:56:22;97827.04;;;8.14;61.37
75247;BME280;63844;50.042;19.224;2023-01-15T12:59:10;97831.09;;;8.16;61.39
75247;BME280;63844;50.042;19.224;2023-01-15T13:01:54;97826.15;;;8.18;61.31
75247;BME280;63844;50.042;19.224;2023-01-15T13:04:33;97825.02;;;8.17;60.70
75247;BME280;63844;50.042;19.224;2023-01-15T13:07:16;97820.80;;;8.19;60.63
75247;BME280;63844;50.042;19.224;2023-01-15T13:09:51;97819.94;;;8.21;60.16
75247;BME280;63844;50.042;19.224;2023-01-15T13:12:21;97818.77;;;8.23;60.25
75247;BME280;63844;50.042;19.224;2023-01-15T13:14:47;97820.08;;;8.24;60.24
75247;BME280;63844;50.042;19.224;2023-01-15T13:20:14;97812.13;;;8.22;60.06
75247;BME280;63844;50.042;19.224;2023-01-15T13:28:45;97825.27;;;8.23;59.71
75247;BME280;63844;50.042;19.224;2023-01-15T13:34:07;97821.24;;;8.25;60.18
75247;BME280;63844;50.042;19.224;2023-01-15T13:36:42;97833.08;;;8.27;60.59
75247;BME280;63844;50.042;19.224;2023-01-15T13:39:21;97837.97;;;8.25;60.71
75247;BME280;63844;50.042;19.224;2023-01-15T13:41:51;97837.71;;;8.24;60.40
75247;BME280;63844;50.042;19.224;2023-01-15T13:44:44;97838.60;;;8.24;60.76
75247;BME280;63844;50.042;19.224;2023-01-15T13:47:26;97826.88;;;8.21;60.98
75247;BME280;63844;50.042;19.224;2023-01-15T13:49:56;97820.55;;;8.23;59.91
75247;BME280;63844;50.042;19.224;2023-01-15T13:52:33;97811.61;;;8.26;60.89
75247;BME280;63844;50.042;19.224;2023-01-15T13:55:31;97807.80;;;8.26;60.04
75247;BME280;63844;50.042;19.224;2023-01-15T13:57:59;97805.12;;;8.28;60.51
75247;BME280;63844;50.042;19.224;2023-01-15T14:00:35;97806.63;;;8.27;60.29
75247;BME280;63844;50.042;19.224;2023-01-15T14:03:28;97804.59;;;8.26;60.86
75247;BME280;63844;50.042;19.224;2023-01-15T14:06:00;97806.52;;;8.24;60.74
75247;BME280;63844;50.042;19.224;2023-01-15T14:08:35;97808.36;;;8.25;60.43
75247;BME280;63844;50.042;19.224;2023-01-15T14:11:02;97803.58;;;8.26;60.42
75247;BME280;63844;50.042;19.224;2023-01-15T14:13:39;97805.59;;;8.24;60.31
75247;BME280;63844;50.042;19.224;2023-01-15T14:22:09;97809.40;;;8.16;60.51
75247;BME280;63844;50.042;19.224;2023-01-15T14:25:01;97802.86;;;8.12;60.79
75247;BME280;63844;50.042;19.224;2023-01-15T14:31:04;97799.58;;;8.08;60.86
75247;BME280;63844;50.042;19.224;2023-01-15T14:36:28;97807.17;;;8.01;61.07